sensor_id;sensor_type;location;lat;lon;timestamp;P1;durP1;ratioP1;P2;durP2;ratioP2
61003;SDS011;46889;37.310;13.582;2022-09-09T00:04:30;14.00;;;4.43;;
61003;SDS011;46889;37.310;13.582;2022-09-09T00:09:46;11.32;;;4.85;;
61003;SDS011;46889;37.310;13.582;2022-09-09T00:12:17;9.82;;;3.72;;
61003;SDS011;46889;37.310;13.582;2022-09-09T00:14:56;8.82;;;4.30;;
61003;SDS011;46889;37.310;13.582;2022-09-09T00:20:01;10.45;;;4.40;;
61003;SDS011;46889;37.310;13.582;2022-09-09T00:22:37;14.60;;;4.30;;
61003;SDS011;46889;37.310;13.582;2022-09-09T00:25:11;10.55;;;4.32;;
61003;SDS011;46889;37.310;13.582;2022-09-09T00:27:45;10.43;;;4.28;;
61003;SDS011;46889;37.310;13.582;2022-09-09T00:30:14;10.00;;;4.47;;
61003;SDS011;46889;37.310;13.582;2022-09-09T00:33:00;11.15;;;4.10;;
61003;SDS011;46889;37.310;13.582;2022-09-09T00:35:37;11.40;;;4.63;;
61003;SDS011;46889;37.310;13.582;2022-09-09T00:38:13;13.85;;;4.20;;
61003;SDS011;46889;37.310;13.582;2022-09-09T00:44:47;9.13;;;3.90;;
61003;SDS011;46889;37.310;13.582;2022-09-09T00:52:32;15.57;;;4.18;;
61003;SDS011;46889;37.310;13.582;2022-09-09T00:55:23;10.23;;;3.80;;
61003;SDS011;46889;37.310;13.582;2022-09-09T00:58:10;11.30;;;3.83;;
61003;SDS011;46889;37.310;13.582;2022-09-09T01:03:20;11.43;;;3.95;;
61003;SDS011;46889;37.310;13.582;2022-09-09T01:06:11;12.00;;;4.20;;
61003;SDS011;46889;37.310;13.582;2022-09-09T01:11:24;14.43;;;4.13;;
61003;SDS011;46889;37.310;13.582;2022-09-09T01:16:50;10.50;;;4.20;;
61003;SDS011;46889;37.310;13.582;2022-09-09T01:19:33;11.32;;;4.20;;
61003;SDS011;46889;37.310;13.582;2022-09-09T01:27:38;8.30;;;3.88;;
61003;SDS011;46889;37.310;13.582;2022-09-09T01:30:13;10.90;;;4.28;;
61003;SDS011;46889;37.310;13.582;2022-09-09T01:32:43;11.18;;;4.53;;
61003;SDS011;46889;37.310;13.582;2022-09-09T01:35:18;14.52;;;4.30;;
61003;SDS011;46889;37.310;13.582;2022-09-09T01:37:50;9.80;;;4.30;;
61003;SDS011;46889;37.310;13.582;2022-09-09T01:40:17;11.20;;;4.20;;
61003;SDS011;46889;37.310;13.582;2022-09-09T01:42:43;13.52;;;4.30;;
61003;SDS011;46889;37.310;13.582;2022-09-09T01:45:09;8.95;;;3.90;;
61003;SDS011;46889;37.310;13.582;2022-09-09T01:47:35;11.00;;;4.35;;
61003;SDS011;46889;37.310;13.582;2022-09-09T01:50:02;12.07;;;4.50;;
61003;SDS011;46889;37.310;13.582;2022-09-09T01:52:29;9.38;;;4.32;;
61003;SDS011;46889;37.310;13.582;2022-09-09T01:54:56;10.43;;;3.83;;
61003;SDS011;46889;37.310;13.582;2022-09-09T01:57:31;12.27;;;4.20;;
61003;SDS011;46889;37.310;13.582;2022-09-09T02:00:06;10.07;;;4.20;;
61003;SDS011;46889;37.310;13.582;2022-09-09T02:07:53;14.07;;;4.30;;
61003;SDS011;46889;37.310;13.582;2022-09-09T02:11:18;10.57;;;4.68;;
61003;SDS011;46889;37.310;13.582;2022-09-09T02:13:31;8.95;;;4.35;;
61003;SDS011;46889;37.310;13.582;2022-09-09T02:18:38;11.10;;;4.30;;
61003;SDS011;46889;37.310;13.582;2022-09-09T02:21:08;10.65;;;4.40;;
61003;SDS011;46889;37.310;13.582;2022-09-09T02:23:37;9.00;;;4.00;;
61003;SDS011;46889;37.310;13.582;2022-09-09T02:26:06;12.05;;;4.43;;
61003;SDS011;46889;37.310;13.582;2022-09-09T02:28:36;13.32;;;4.45;;
61003;SDS011;46889;37.310;13.582;2022-09-09T02:31:04;12.73;;;4.18;;
61003;SDS011;46889;37.310;13.582;2022-09-09T02:33:36;10.98;;;4.30;;
61003;SDS011;46889;37.310;13.582;2022-09-09T02:36:07;8.80;;;4.60;;
61003;SDS011;46889;37.310;13.582;2022-09-09T02:38:36;13.20;;;4.15;;
61003;SDS011;46889;37.310;13.582;2022-09-09T02:41:07;12.80;;;4.60;;
61003;SDS011;46889;37.310;13.582;2022-09-09T02:43:33;10.18;;;4.53;;
61003;SDS011;46889;37.310;13.582;2022-09-09T02:49:03;10.38;;;4.78;;
61003;SDS011;46889;37.310;13.582;2022-09-09T02:51:45;10.93;;;4.18;;
61003;SDS011;46889;37.310;13.582;2022-09-09T02:54:27;8.98;;;4.07;;
61003;SDS011;46889;37.310;13.582;2022-09-09T02:57:08;11.10;;;4.22;;
61003;SDS011;46889;37.310;13.582;2022-09-09T02:59:41;15.00;;;4.78;;
61003;SDS011;46889;37.310;13.582;2022-09-09T03:02:09;10.70;;;4.63;;
61003;SDS011;46889;37.310;13.582;2022-09-09T03:04:37;10.82;;;4.85;;
61003;SDS011;46889;37.310;13.582;2022-09-09T03:07:03;12.50;;;4.78;;
61003;SDS011;46889;37.310;13.582;2022-09-09T03:09:29;12.48;;;4.93;;
61003;SDS011;46889;37.310;13.582;2022-09-09T03:11:57;10.20;;;4.40;;
61003;SDS011;46889;37.310;13.582;2022-09-09T03:14:23;10.45;;;4.55;;
61003;SDS011;46889;37.310;13.582;2022-09-09T03:16:52;11.75;;;5.07;;
61003;SDS011;46889;37.310;13.582;2022-09-09T03:19:19;16.23;;;4.90;;
61003;SDS011;46889;37.310;13.582;2022-09-09T03:21:46;12.18;;;4.68;;
61003;SDS011;46889;37.310;13.582;2022-09-09T03:26:39;11.98;;;4.50;;
61003;SDS011;46889;37.310;13.582;2022-09-09T03:29:06;8.98;;;4.30;;
61003;SDS011;46889;37.310;13.582;2022-09-09T03:31:35;18.58;;;5.10;;
61003;SDS011;46889;37.310;13.582;2022-09-09T03:34:01;9.48;;;4.35;;
61003;SDS011;46889;37.310;13.582;2022-09-09T03:36:28;11.38;;;4.70;;
61003;SDS011;46889;37.310;13.582;2022-09-09T03:41:21;10.68;;;4.38;;
61003;SDS011;46889;37.310;13.582;2022-09-09T03:43:52;8.30;;;4.35;;
61003;SDS011;46889;37.310;13.582;2022-09-09T03:46:19;12.43;;;4.55;;
61003;SDS011;46889;37.310;13.582;2022-09-09T03:48:46;11.13;;;4.93;;
61003;SDS011;46889;37.310;13.582;2022-09-09T03:51:12;12.77;;;4.88;;
61003;SDS011;46889;37.310;13.582;2022-09-09T03:53:39;9.80;;;4.85;;
61003;SDS011;46889;37.310;13.582;2022-09-09T03:56:06;7.82;;;4.53;;
61003;SDS011;46889;37.310;13.582;2022-09-09T03:58:35;9.48;;;4.43;;
61003;SDS011;46889;37.310;13.582;2022-09-09T04:01:03;15.60;;;4.90;;
61003;SDS011;46889;37.310;13.582;2022-09-09T04:03:34;12.48;;;4.93;;
61003;SDS011;46889;37.310;13.582;2022-09-09T04:06:01;10.38;;;5.25;;
61003;SDS011;46889;37.310;13.582;2022-09-09T04:08:29;17.08;;;5.20;;
61003;SDS011;46889;37.310;13.582;2022-09-09T04:10:59;11.40;;;5.00;;
61003;SDS011;46889;37.310;13.582;2022-09-09T04:13:27;11.25;;;4.78;;
61003;SDS011;46889;37.310;13.582;2022-09-09T04:18:20;10.85;;;4.68;;
61003;SDS011;46889;37.310;13.582;2022-09-09T04:20:48;14.90;;;5.45;;
61003;SDS011;46889;37.310;13.582;2022-09-09T04:23:15;10.13;;;4.80;;
61003;SDS011;46889;37.310;13.582;2022-09-09T04:26:02;10.07;;;4.95;;
61003;SDS011;46889;37.310;13.582;2022-09-09T04:28:29;12.68;;;4.60;;
61003;SDS011;46889;37.310;13.582;2022-09-09T04:30:58;13.68;;;5.35;;
61003;SDS011;46889;37.310;13.582;2022-09-09T04:33:34;12.57;;;5.28;;
61003;SDS011;46889;37.310;13.582;2022-09-09T04:36:00;12.20;;;4.97;;
61003;SDS011;46889;37.310;13.582;2022-09-09T04:38:27;12.48;;;5.50;;
61003;SDS011;46889;37.310;13.582;2022-09-09T04:40:53;12.85;;;4.65;;
61003;SDS011;46889;37.310;13.582;2022-09-09T04:43:20;14.63;;;5.20;;
61003;SDS011;46889;37.310;13.582;2022-09-09T04:45:47;13.40;;;5.32;;
61003;SDS011;46889;37.310;13.582;2022-09-09T04:48:14;13.70;;;5.05;;
61003;SDS011;46889;37.310;13.582;2022-09-09T04:50:40;13.35;;;5.00;;
61003;SDS011;46889;37.310;13.582;2022-09-09T04:53:06;11.38;;;4.75;;
61003;SDS011;46889;37.310;13.582;2022-09-09T04:55:33;11.88;;;4.95;;
61003;SDS011;46889;37.310;13.582;2022-09-09T04:58:05;14.55;;;4.70;;
61003;SDS011;46889;37.310;13.582;2022-09-09T05:00:33;12.32;;;4.78;;
61003;SDS011;46889;37.310;13.582;2022-09-09T05:03:03;14.90;;;4.88;;
61003;SDS011;46889;37.310;13.582;2022-09-09T05:05:31;10.68;;;4.68;;
61003;SDS011;46889;37.310;13.582;2022-09-09T05:08:01;12.00;;;4.70;;
61003;SDS011;46889;37.310;13.582;2022-09-09T05:10:28;14.65;;;5.07;;
61003;SDS011;46889;37.310;13.582;2022-09-09T05:12:54;12.52;;;4.35;;
61003;SDS011;46889;37.310;13.582;2022-09-09T05:15:21;15.43;;;4.60;;
61003;SDS011;46889;37.310;13.582;2022-09-09T05:17:48;11.15;;;4.72;;
61003;SDS011;46889;37.310;13.582;2022-09-09T05:20:14;14.18;;;4.50;;
61003;SDS011;46889;37.310;13.582;2022-09-09T05:27:35;13.40;;;4.32;;
61003;SDS011;46889;37.310;13.582;2022-09-09T05:30:03;11.50;;;4.68;;
61003;SDS011;46889;37.310;13.582;2022-09-09T05:32:30;19.27;;;4.72;;
61003;SDS011;46889;37.310;13.582;2022-09-09T05:34:59;28.58;;;5.20;;
61003;SDS011;46889;37.310;13.582;2022-09-09T05:37:26;13.73;;;4.15;;
61003;SDS011;46889;37.310;13.582;2022-09-09T05:39:52;11.80;;;3.63;;
61003;SDS011;46889;37.310;13.582;2022-09-09T05:42:18;13.48;;;3.80;;
61003;SDS011;46889;37.310;13.582;2022-09-09T05:44:44;11.55;;;3.40;;
61003;SDS011;46889;37.310;13.582;2022-09-09T05:47:10;12.48;;;3.72;;
61003;SDS011;46889;37.310;13.582;2022-09-09T05:49:36;10.00;;;3.38;;
61003;SDS011;46889;37.310;13.582;2022-09-09T05:52:02;15.23;;;3.58;;
61003;SDS011;46889;37.310;13.582;2022-09-09T05:56:55;21.05;;;3.63;;
61003;SDS011;46889;37.310;13.582;2022-09-09T05:59:21;10.13;;;3.55;;
61003;SDS011;46889;37.310;13.582;2022-09-09T06:01:48;11.77;;;3.40;;
61003;SDS011;46889;37.310;13.582;2022-09-09T06:06:41;9.35;;;2.95;;
61003;SDS011;46889;37.310;13.582;2022-09-09T06:09:08;10.45;;;3.05;;
61003;SDS011;46889;37.310;13.582;2022-09-09T06:11:36;8.77;;;3.05;;
61003;SDS011;46889;37.310;13.582;2022-09-09T06:14:03;14.07;;;3.45;;
61003;SDS011;46889;37.310;13.582;2022-09-09T06:16:30;11.88;;;3.92;;
61003;SDS011;46889;37.310;13.582;2022-09-09T06:19:00;10.35;;;3.47;;
61003;SDS011;46889;37.310;13.582;2022-09-09T06:21:32;11.13;;;3.20;;
61003;SDS011;46889;37.310;13.582;2022-09-09T06:24:01;10.82;;;3.33;;
61003;SDS011;46889;37.310;13.582;2022-09-09T06:26:29;9.77;;;3.28;;
61003;SDS011;46889;37.310;13.582;2022-09-09T06:28:56;9.10;;;3.58;;
61003;SDS011;46889;37.310;13.582;2022-09-09T06:31:24;14.63;;;3.45;;
61003;SDS011;46889;37.310;13.582;2022-09-09T06:33:53;14.70;;;3.78;;
61003;SDS011;46889;37.310;13.582;2022-09-09T06:36:29;13.65;;;2.80;;
61003;SDS011;46889;37.310;13.582;2022-09-09T06:39:00;9.13;;;3.33;;
61003;SDS011;46889;37.310;13.582;2022-09-09T06:41:27;14.10;;;3.10;;
61003;SDS011;46889;37.310;13.582;2022-09-09T06:43:55;9.35;;;3.00;;
61003;SDS011;46889;37.310;13.582;2022-09-09T06:46:22;10.48;;;3.10;;
61003;SDS011;46889;37.310;13.582;2022-09-09T06:48:53;10.00;;;3.05;;
61003;SDS011;46889;37.310;13.582;2022-09-09T06:51:25;10.13;;;2.85;;
61003;SDS011;46889;37.310;13.582;2022-09-09T06:53:54;11.85;;;2.92;;
61003;SDS011;46889;37.310;13.582;2022-09-09T06:56:30;11.43;;;2.67;;
61003;SDS011;46889;37.310;13.582;2022-09-09T06:58:58;8.82;;;2.75;;
61003;SDS011;46889;37.310;13.582;2022-09-09T07:01:30;9.43;;;2.45;;
61003;SDS011;46889;37.310;13.582;2022-09-09T07:04:04;11.30;;;2.70;;
61003;SDS011;46889;37.310;13.582;2022-09-09T07:06:37;9.38;;;2.75;;
61003;SDS011;46889;37.310;13.582;2022-09-09T07:09:07;11.93;;;3.05;;
61003;SDS011;46889;37.310;13.582;2022-09-09T07:11:37;6.82;;;2.90;;
61003;SDS011;46889;37.310;13.582;2022-09-09T07:14:11;12.52;;;3.60;;
61003;SDS011;46889;37.310;13.582;2022-09-09T07:16:39;10.10;;;2.80;;
61003;SDS011;46889;37.310;13.582;2022-09-09T07:19:08;14.57;;;3.33;;
61003;SDS011;46889;37.310;13.582;2022-09-09T07:24:38;14.93;;;3.67;;
61003;SDS011;46889;37.310;13.582;2022-09-09T07:29:30;9.80;;;3.28;;
61003;SDS011;46889;37.310;13.582;2022-09-09T07:34:23;11.45;;;3.60;;
61003;SDS011;46889;37.310;13.582;2022-09-09T07:36:49;9.18;;;3.03;;
61003;SDS011;46889;37.310;13.582;2022-09-09T07:41:43;14.00;;;3.45;;
61003;SDS011;46889;37.310;13.582;2022-09-09T07:44:15;11.02;;;3.40;;
61003;SDS011;46889;37.310;13.582;2022-09-09T07:46:43;18.25;;;3.60;;
61003;SDS011;46889;37.310;13.582;2022-09-09T07:49:10;11.63;;;3.70;;
61003;SDS011;46889;37.310;13.582;2022-09-09T07:54:05;10.40;;;3.03;;
61003;SDS011;46889;37.310;13.582;2022-09-09T07:56:34;11.02;;;3.28;;
61003;SDS011;46889;37.310;13.582;2022-09-09T07:59:02;11.23;;;3.80;;
61003;SDS011;46889;37.310;13.582;2022-09-09T08:04:05;13.18;;;3.97;;
61003;SDS011;46889;37.310;13.582;2022-09-09T08:06:34;14.63;;;3.97;;
61003;SDS011;46889;37.310;13.582;2022-09-09T08:09:03;15.30;;;3.30;;
61003;SDS011;46889;37.310;13.582;2022-09-09T08:11:31;9.90;;;2.97;;
61003;SDS011;46889;37.310;13.582;2022-09-09T08:13:58;10.27;;;3.22;;
61003;SDS011;46889;37.310;13.582;2022-09-09T08:16:26;12.05;;;2.95;;
61003;SDS011;46889;37.310;13.582;2022-09-09T08:18:55;13.40;;;3.08;;
61003;SDS011;46889;37.310;13.582;2022-09-09T08:21:22;10.10;;;3.35;;
61003;SDS011;46889;37.310;13.582;2022-09-09T08:23:50;16.85;;;3.15;;
61003;SDS011;46889;37.310;13.582;2022-09-09T08:26:19;11.18;;;3.42;;
61003;SDS011;46889;37.310;13.582;2022-09-09T08:28:52;13.05;;;3.40;;
61003;SDS011;46889;37.310;13.582;2022-09-09T08:31:28;11.23;;;3.10;;
61003;SDS011;46889;37.310;13.582;2022-09-09T08:33:59;11.07;;;3.25;;
61003;SDS011;46889;37.310;13.582;2022-09-09T08:36:28;11.07;;;2.80;;
61003;SDS011;46889;37.310;13.582;2022-09-09T08:38:56;11.77;;;3.17;;
61003;SDS011;46889;37.310;13.582;2022-09-09T08:41:28;12.07;;;3.20;;
61003;SDS011;46889;37.310;13.582;2022-09-09T08:57:41;8.80;;;3.15;;
61003;SDS011;46889;37.310;13.582;2022-09-09T09:00:09;11.35;;;3.25;;
61003;SDS011;46889;37.310;13.582;2022-09-09T09:05:45;16.63;;;3.38;;
61003;SDS011;46889;37.310;13.582;2022-09-09T09:08:26;14.48;;;3.47;;
61003;SDS011;46889;37.310;13.582;2022-09-09T09:11:03;13.15;;;3.60;;
61003;SDS011;46889;37.310;13.582;2022-09-09T09:17:00;11.23;;;3.00;;
61003;SDS011;46889;37.310;13.582;2022-09-09T09:19:38;12.95;;;3.40;;
61003;SDS011;46889;37.310;13.582;2022-09-09T09:25:11;8.75;;;2.47;;
61003;SDS011;46889;37.310;13.582;2022-09-09T09:30:39;10.10;;;3.10;;
61003;SDS011;46889;37.310;13.582;2022-09-09T09:35:45;14.43;;;2.70;;
61003;SDS011;46889;37.310;13.582;2022-09-09T09:40:51;15.30;;;3.33;;
61003;SDS011;46889;37.310;13.582;2022-09-09T09:43:31;13.85;;;3.70;;
61003;SDS011;46889;37.310;13.582;2022-09-09T09:46:04;12.02;;;3.65;;
61003;SDS011;46889;37.310;13.582;2022-09-09T09:48:30;11.68;;;3.22;;
61003;SDS011;46889;37.310;13.582;2022-09-09T09:50:58;16.48;;;3.63;;
61003;SDS011;46889;37.310;13.582;2022-09-09T09:56:00;14.80;;;3.63;;
61003;SDS011;46889;37.310;13.582;2022-09-09T10:01:27;13.10;;;3.58;;
61003;SDS011;46889;37.310;13.582;2022-09-09T10:04:15;10.32;;;2.78;;
61003;SDS011;46889;37.310;13.582;2022-09-09T10:06:48;12.55;;;3.28;;
61003;SDS011;46889;37.310;13.582;2022-09-09T10:09:28;11.85;;;2.92;;
61003;SDS011;46889;37.310;13.582;2022-09-09T10:12:06;13.52;;;3.40;;
61003;SDS011;46889;37.310;13.582;2022-09-09T10:15:07;16.55;;;3.38;;
61003;SDS011;46889;37.310;13.582;2022-09-09T10:18:17;15.15;;;2.85;;
61003;SDS011;46889;37.310;13.582;2022-09-09T10:27:03;17.73;;;3.30;;
61003;SDS011;46889;37.310;13.582;2022-09-09T10:57:35;14.48;;;3.05;;
61003;SDS011;46889;37.310;13.582;2022-09-09T11:00:06;15.65;;;3.33;;
61003;SDS011;46889;37.310;13.582;2022-09-09T11:02:41;17.00;;;3.42;;
61003;SDS011;46889;37.310;13.582;2022-09-09T11:10:30;17.83;;;3.20;;
61003;SDS011;46889;37.310;13.582;2022-09-09T11:13:10;15.27;;;2.95;;
61003;SDS011;46889;37.310;13.582;2022-09-09T11:15:51;14.90;;;3.53;;
61003;SDS011;46889;37.310;13.582;2022-09-09T11:18:22;20.30;;;3.78;;
61003;SDS011;46889;37.310;13.582;2022-09-09T11:20:51;17.05;;;3.70;;
61003;SDS011;46889;37.310;13.582;2022-09-09T11:23:25;16.73;;;3.60;;
61003;SDS011;46889;37.310;13.582;2022-09-09T11:26:16;13.15;;;3.45;;
61003;SDS011;46889;37.310;13.582;2022-09-09T11:29:04;18.20;;;3.35;;
61003;SDS011;46889;37.310;13.582;2022-09-09T11:31:44;16.90;;;3.50;;
61003;SDS011;46889;37.310;13.582;2022-09-09T11:34:27;27.48;;;3.63;;
61003;SDS011;46889;37.310;13.582;2022-09-09T11:37:08;15.27;;;2.80;;
61003;SDS011;46889;37.310;13.582;2022-09-09T11:39:51;15.90;;;3.13;;
61003;SDS011;46889;37.310;13.582;2022-09-09T11:42:32;21.85;;;3.35;;
61003;SDS011;46889;37.310;13.582;2022-09-09T11:45:08;17.30;;;3.63;;
61003;SDS011;46889;37.310;13.582;2022-09-09T11:47:36;13.00;;;2.95;;
61003;SDS011;46889;37.310;13.582;2022-09-09T11:52:42;22.05;;;4.03;;
61003;SDS011;46889;37.310;13.582;2022-09-09T11:58:03;16.23;;;3.17;;
61003;SDS011;46889;37.310;13.582;2022-09-09T12:08:43;16.75;;;3.95;;
61003;SDS011;46889;37.310;13.582;2022-09-09T12:11:11;14.48;;;3.60;;
61003;SDS011;46889;37.310;13.582;2022-09-09T12:13:37;21.30;;;4.07;;
61003;SDS011;46889;37.310;13.582;2022-09-09T12:16:03;16.10;;;3.65;;
61003;SDS011;46889;37.310;13.582;2022-09-09T12:18:37;11.77;;;3.60;;
61003;SDS011;46889;37.310;13.582;2022-09-09T12:21:25;20.88;;;4.03;;
61003;SDS011;46889;37.310;13.582;2022-09-09T12:24:11;43.92;;;5.35;;
61003;SDS011;46889;37.310;13.582;2022-09-09T12:37:31;14.43;;;4.33;;
61003;SDS011;46889;37.310;13.582;2022-09-09T12:40:21;13.15;;;4.15;;
61003;SDS011;46889;37.310;13.582;2022-09-09T12:42:49;12.68;;;4.18;;
61003;SDS011;46889;37.310;13.582;2022-09-09T12:45:17;18.30;;;4.80;;
61003;SDS011;46889;37.310;13.582;2022-09-09T12:50:22;12.82;;;4.10;;
61003;SDS011;46889;37.310;13.582;2022-09-09T12:52:57;22.10;;;4.60;;
61003;SDS011;46889;37.310;13.582;2022-09-09T12:55:30;15.40;;;4.75;;
61003;SDS011;46889;37.310;13.582;2022-09-09T12:57:59;14.23;;;4.00;;
61003;SDS011;46889;37.310;13.582;2022-09-09T13:00:30;12.93;;;4.15;;
61003;SDS011;46889;37.310;13.582;2022-09-09T13:02:58;14.10;;;4.38;;
61003;SDS011;46889;37.310;13.582;2022-09-09T13:05:27;11.05;;;4.18;;
61003;SDS011;46889;37.310;13.582;2022-09-09T13:08:01;19.75;;;4.57;;
61003;SDS011;46889;37.310;13.582;2022-09-09T13:10:29;14.82;;;4.57;;
61003;SDS011;46889;37.310;13.582;2022-09-09T13:12:58;13.43;;;4.32;;
61003;SDS011;46889;37.310;13.582;2022-09-09T13:15:26;12.68;;;4.30;;
61003;SDS011;46889;37.310;13.582;2022-09-09T13:17:55;9.10;;;3.80;;
61003;SDS011;46889;37.310;13.582;2022-09-09T13:20:28;11.20;;;4.50;;
61003;SDS011;46889;37.310;13.582;2022-09-09T13:22:56;13.30;;;4.40;;
61003;SDS011;46889;37.310;13.582;2022-09-09T13:25:24;13.07;;;4.38;;
61003;SDS011;46889;37.310;13.582;2022-09-09T13:28:01;21.58;;;4.60;;
61003;SDS011;46889;37.310;13.582;2022-09-09T13:30:33;18.30;;;4.82;;
61003;SDS011;46889;37.310;13.582;2022-09-09T13:33:06;16.92;;;4.93;;
61003;SDS011;46889;37.310;13.582;2022-09-09T13:35:51;13.20;;;4.93;;
61003;SDS011;46889;37.310;13.582;2022-09-09T13:38:23;16.65;;;4.88;;
61003;SDS011;46889;37.310;13.582;2022-09-09T13:40:57;17.27;;;4.88;;
61003;SDS011;46889;37.310;13.582;2022-09-09T13:43:36;16.45;;;4.50;;
61003;SDS011;46889;37.310;13.582;2022-09-09T13:51:37;17.98;;;4.55;;
61003;SDS011;46889;37.310;13.582;2022-09-09T13:54:09;19.15;;;4.60;;
61003;SDS011;46889;37.310;13.582;2022-09-09T13:56:37;15.68;;;4.50;;
61003;SDS011;46889;37.310;13.582;2022-09-09T13:59:04;14.68;;;4.53;;
61003;SDS011;46889;37.310;13.582;2022-09-09T14:01:34;13.80;;;4.50;;
61003;SDS011;46889;37.310;13.582;2022-09-09T14:04:02;19.45;;;4.47;;
61003;SDS011;46889;37.310;13.582;2022-09-09T14:06:28;17.20;;;4.53;;
61003;SDS011;46889;37.310;13.582;2022-09-09T14:08:55;19.58;;;4.60;;
61003;SDS011;46889;37.310;13.582;2022-09-09T14:11:21;11.55;;;3.83;;
61003;SDS011;46889;37.310;13.582;2022-09-09T14:16:17;14.35;;;4.55;;
61003;SDS011;46889;37.310;13.582;2022-09-09T14:18:44;18.00;;;4.50;;
61003;SDS011;46889;37.310;13.582;2022-09-09T14:21:11;14.55;;;4.32;;
61003;SDS011;46889;37.310;13.582;2022-09-09T14:23:38;19.95;;;4.70;;
61003;SDS011;46889;37.310;13.582;2022-09-09T14:26:04;19.48;;;5.10;;
61003;SDS011;46889;37.310;13.582;2022-09-09T14:28:32;12.98;;;4.78;;
61003;SDS011;46889;37.310;13.582;2022-09-09T14:30:59;15.00;;;4.57;;
61003;SDS011;46889;37.310;13.582;2022-09-09T14:33:26;14.55;;;4.30;;
61003;SDS011;46889;37.310;13.582;2022-09-09T14:35:59;16.27;;;4.95;;
61003;SDS011;46889;37.310;13.582;2022-09-09T14:38:30;16.95;;;5.22;;
61003;SDS011;46889;37.310;13.582;2022-09-09T14:40:59;14.77;;;4.90;;
61003;SDS011;46889;37.310;13.582;2022-09-09T14:43:28;19.02;;;5.63;;
61003;SDS011;46889;37.310;13.582;2022-09-09T14:45:57;15.80;;;5.20;;
61003;SDS011;46889;37.310;13.582;2022-09-09T14:48:33;12.05;;;4.43;;
61003;SDS011;46889;37.310;13.582;2022-09-09T14:51:06;13.48;;;5.05;;
61003;SDS011;46889;37.310;13.582;2022-09-09T14:53:59;13.85;;;4.68;;
61003;SDS011;46889;37.310;13.582;2022-09-09T14:56:28;10.98;;;4.47;;
61003;SDS011;46889;37.310;13.582;2022-09-09T14:58:56;16.02;;;4.60;;
61003;SDS011;46889;37.310;13.582;2022-09-09T15:01:26;14.57;;;4.95;;
61003;SDS011;46889;37.310;13.582;2022-09-09T15:03:55;14.50;;;5.07;;
61003;SDS011;46889;37.310;13.582;2022-09-09T15:06:26;16.25;;;4.60;;
61003;SDS011;46889;37.310;13.582;2022-09-09T15:08:54;16.77;;;5.03;;
61003;SDS011;46889;37.310;13.582;2022-09-09T15:11:23;23.40;;;5.38;;
61003;SDS011;46889;37.310;13.582;2022-09-09T15:13:51;13.77;;;4.80;;
61003;SDS011;46889;37.310;13.582;2022-09-09T15:16:18;19.52;;;5.07;;
61003;SDS011;46889;37.310;13.582;2022-09-09T15:18:46;19.80;;;5.18;;
61003;SDS011;46889;37.310;13.582;2022-09-09T15:21:16;12.00;;;4.80;;
61003;SDS011;46889;37.310;13.582;2022-09-09T15:23:46;14.32;;;4.90;;
61003;SDS011;46889;37.310;13.582;2022-09-09T15:26:13;16.92;;;5.00;;
61003;SDS011;46889;37.310;13.582;2022-09-09T15:28:40;16.80;;;5.50;;
61003;SDS011;46889;37.310;13.582;2022-09-09T15:31:12;18.90;;;5.50;;
61003;SDS011;46889;37.310;13.582;2022-09-09T15:33:51;20.13;;;5.72;;
61003;SDS011;46889;37.310;13.582;2022-09-09T15:36:19;21.13;;;5.28;;
61003;SDS011;46889;37.310;13.582;2022-09-09T15:38:50;21.52;;;5.70;;
61003;SDS011;46889;37.310;13.582;2022-09-09T15:41:17;17.58;;;5.20;;
61003;SDS011;46889;37.310;13.582;2022-09-09T15:43:45;21.52;;;4.88;;
61003;SDS011;46889;37.310;13.582;2022-09-09T15:48:43;17.10;;;5.10;;
61003;SDS011;46889;37.310;13.582;2022-09-09T15:51:10;13.45;;;4.88;;
61003;SDS011;46889;37.310;13.582;2022-09-09T15:53:37;19.67;;;5.32;;
61003;SDS011;46889;37.310;13.582;2022-09-09T15:56:06;19.98;;;5.13;;
61003;SDS011;46889;37.310;13.582;2022-09-09T16:01:05;18.25;;;5.15;;
61003;SDS011;46889;37.310;13.582;2022-09-09T16:03:36;20.73;;;5.30;;
61003;SDS011;46889;37.310;13.582;2022-09-09T16:06:04;15.77;;;4.78;;
61003;SDS011;46889;37.310;13.582;2022-09-09T16:08:31;15.77;;;5.10;;
61003;SDS011;46889;37.310;13.582;2022-09-09T16:11:09;22.00;;;6.00;;
61003;SDS011;46889;37.310;13.582;2022-09-09T16:13:37;26.65;;;6.00;;
61003;SDS011;46889;37.310;13.582;2022-09-09T16:16:04;20.40;;;5.95;;
61003;SDS011;46889;37.310;13.582;2022-09-09T16:18:50;20.27;;;5.55;;
61003;SDS011;46889;37.310;13.582;2022-09-09T16:21:18;16.98;;;5.93;;
61003;SDS011;46889;37.310;13.582;2022-09-09T16:23:50;19.95;;;5.50;;
61003;SDS011;46889;37.310;13.582;2022-09-09T16:26:18;19.92;;;5.93;;
61003;SDS011;46889;37.310;13.582;2022-09-09T16:28:45;20.13;;;5.55;;
61003;SDS011;46889;37.310;13.582;2022-09-09T16:31:17;15.95;;;5.72;;
61003;SDS011;46889;37.310;13.582;2022-09-09T16:33:46;22.85;;;6.38;;
61003;SDS011;46889;37.310;13.582;2022-09-09T16:36:14;19.33;;;6.18;;
61003;SDS011;46889;37.310;13.582;2022-09-09T16:38:41;20.73;;;6.55;;
61003;SDS011;46889;37.310;13.582;2022-09-09T16:41:11;19.83;;;6.30;;
61003;SDS011;46889;37.310;13.582;2022-09-09T16:43:39;18.65;;;5.47;;
61003;SDS011;46889;37.310;13.582;2022-09-09T16:46:13;23.63;;;6.03;;
61003;SDS011;46889;37.310;13.582;2022-09-09T16:48:42;15.65;;;5.60;;
61003;SDS011;46889;37.310;13.582;2022-09-09T16:51:16;18.52;;;6.00;;
61003;SDS011;46889;37.310;13.582;2022-09-09T16:53:43;21.92;;;5.80;;
61003;SDS011;46889;37.310;13.582;2022-09-09T16:56:11;18.30;;;5.80;;
61003;SDS011;46889;37.310;13.582;2022-09-09T16:58:42;17.52;;;5.15;;
61003;SDS011;46889;37.310;13.582;2022-09-09T17:01:10;20.60;;;5.78;;
61003;SDS011;46889;37.310;13.582;2022-09-09T17:03:45;22.02;;;5.85;;
61003;SDS011;46889;37.310;13.582;2022-09-09T17:06:12;15.50;;;5.72;;
61003;SDS011;46889;37.310;13.582;2022-09-09T17:08:40;22.67;;;6.30;;
61003;SDS011;46889;37.310;13.582;2022-09-09T17:11:13;17.15;;;5.60;;
61003;SDS011;46889;37.310;13.582;2022-09-09T17:13:42;18.60;;;6.22;;
61003;SDS011;46889;37.310;13.582;2022-09-09T17:16:09;17.58;;;5.93;;
61003;SDS011;46889;37.310;13.582;2022-09-09T17:18:36;21.48;;;7.03;;
61003;SDS011;46889;37.310;13.582;2022-09-09T17:21:04;18.42;;;5.95;;
61003;SDS011;46889;37.310;13.582;2022-09-09T17:23:32;22.40;;;6.70;;
61003;SDS011;46889;37.310;13.582;2022-09-09T17:26:05;16.48;;;6.38;;
61003;SDS011;46889;37.310;13.582;2022-09-09T17:28:35;25.65;;;7.25;;
61003;SDS011;46889;37.310;13.582;2022-09-09T17:31:03;19.38;;;6.75;;
61003;SDS011;46889;37.310;13.582;2022-09-09T17:33:35;21.48;;;6.20;;
61003;SDS011;46889;37.310;13.582;2022-09-09T17:36:07;22.50;;;6.75;;
61003;SDS011;46889;37.310;13.582;2022-09-09T17:38:44;20.85;;;6.57;;
61003;SDS011;46889;37.310;13.582;2022-09-09T17:41:13;16.77;;;6.30;;
61003;SDS011;46889;37.310;13.582;2022-09-09T17:43:41;20.83;;;6.72;;
61003;SDS011;46889;37.310;13.582;2022-09-09T17:46:12;22.13;;;6.50;;
61003;SDS011;46889;37.310;13.582;2022-09-09T17:48:44;16.45;;;6.63;;
61003;SDS011;46889;37.310;13.582;2022-09-09T17:51:13;26.75;;;6.85;;
61003;SDS011;46889;37.310;13.582;2022-09-09T17:53:42;20.73;;;6.28;;
61003;SDS011;46889;37.310;13.582;2022-09-09T17:56:10;20.65;;;6.53;;